createdAt,value
2023-04-24T00:00:45.367Z,99.90
2023-04-24T00:03:12.126Z,99.90
2023-04-24T00:05:38.995Z,99.90
2023-04-24T00:08:05.581Z,99.90
2023-04-24T00:10:32.219Z,99.90
2023-04-24T00:12:58.794Z,99.90
2023-04-24T00:15:25.416Z,99.90
2023-04-24T00:17:52.052Z,99.90
2023-04-24T00:20:18.695Z,99.90
2023-04-24T00:22:45.225Z,99.90
2023-04-24T00:25:11.791Z,99.90
2023-04-24T00:27:38.417Z,99.90
2023-04-24T00:30:05.688Z,99.90
2023-04-24T00:32:32.384Z,99.90
2023-04-24T00:34:59.064Z,99.90
2023-04-24T00:37:25.644Z,99.90
2023-04-24T00:39:52.206Z,99.90
2023-04-24T00:42:18.768Z,99.90
2023-04-24T00:44:45.568Z,99.90
2023-04-24T00:47:12.668Z,99.90
2023-04-24T00:49:39.330Z,99.90
2023-04-24T00:52:05.864Z,99.90
2023-04-24T00:54:32.438Z,99.90
2023-04-24T00:56:59.085Z,99.90
2023-04-24T00:59:25.822Z,99.90
2023-04-24T01:01:52.581Z,99.90
2023-04-24T01:04:19.355Z,99.90
2023-04-24T01:06:46.761Z,99.90
2023-04-24T01:09:14.031Z,99.90
2023-04-24T01:11:42.225Z,99.90
2023-04-24T01:14:08.803Z,99.90
2023-04-24T01:16:35.487Z,99.90
2023-04-24T01:19:02.240Z,99.90
2023-04-24T01:21:33.372Z,99.90
2023-04-24T01:24:00.177Z,99.90
2023-04-24T01:26:27.558Z,99.90
2023-04-24T01:28:54.277Z,99.90
2023-04-24T01:31:21.299Z,99.90
2023-04-24T01:33:48.575Z,99.90
2023-04-24T01:36:16.134Z,99.90
2023-04-24T01:38:42.770Z,99.90
2023-04-24T01:41:09.432Z,99.90
2023-04-24T01:43:36.181Z,99.90
2023-04-24T01:46:02.950Z,99.90
2023-04-24T01:48:29.951Z,99.90
2023-04-24T01:50:57.712Z,99.90
2023-04-24T01:53:24.348Z,99.90
2023-04-24T01:55:50.929Z,99.90
2023-04-24T01:58:17.500Z,99.90
2023-04-24T02:00:44.210Z,99.90
2023-04-24T02:03:10.981Z,99.90
2023-04-24T02:05:37.714Z,99.90
2023-04-24T02:08:04.287Z,99.90
2023-04-24T02:10:30.952Z,99.90
2023-04-24T02:12:57.531Z,99.90
2023-04-24T02:15:24.144Z,99.90
2023-04-24T02:17:50.750Z,99.90
2023-04-24T02:20:17.336Z,99.90
2023-04-24T02:22:43.924Z,99.90
2023-04-24T02:25:10.612Z,99.90
2023-04-24T02:27:37.201Z,99.90
2023-04-24T02:30:03.980Z,99.90
2023-04-24T02:32:30.555Z,99.90
2023-04-24T02:34:57.153Z,99.90
2023-04-24T02:37:23.719Z,99.90
2023-04-24T02:39:50.314Z,99.90
2023-04-24T02:42:16.843Z,99.90
2023-04-24T02:44:43.483Z,99.90
2023-04-24T02:47:10.080Z,99.90
2023-04-24T02:49:36.740Z,99.90
2023-04-24T02:52:03.450Z,99.90
2023-04-24T02:54:29.994Z,99.90
2023-04-24T02:56:56.648Z,99.90
2023-04-24T02:59:23.240Z,99.90
2023-04-24T03:01:49.948Z,99.90
2023-04-24T03:04:16.799Z,99.90
2023-04-24T03:06:43.894Z,99.90
2023-04-24T03:09:10.494Z,99.90
2023-04-24T03:11:37.036Z,99.90
2023-04-24T03:14:03.621Z,99.90
2023-04-24T03:16:30.218Z,99.90
2023-04-24T03:18:56.816Z,99.90
2023-04-24T03:21:23.791Z,99.90
2023-04-24T03:23:50.336Z,99.90
2023-04-24T03:26:16.876Z,99.90
2023-04-24T03:28:43.428Z,99.90
2023-04-24T03:31:10.010Z,99.90
2023-04-24T03:33:36.574Z,99.90
2023-04-24T03:36:03.351Z,99.90
2023-04-24T03:38:29.908Z,99.90
2023-04-24T03:40:56.452Z,99.90
2023-04-24T03:43:23.030Z,99.90
2023-04-24T03:45:49.805Z,99.90
2023-04-24T03:48:16.413Z,99.90
2023-04-24T03:50:43.016Z,99.90
2023-04-24T03:53:09.567Z,99.90
2023-04-24T03:55:36.136Z,99.90
2023-04-24T03:58:02.753Z,99.90
2023-04-24T04:00:29.342Z,99.90
2023-04-24T04:02:56.039Z,99.90
2023-04-24T04:05:22.902Z,99.90
2023-04-24T04:07:49.639Z,99.90
2023-04-24T04:10:16.260Z,99.90
2023-04-24T04:12:42.866Z,99.90
2023-04-24T04:15:09.838Z,99.90
2023-04-24T04:17:36.440Z,99.90
2023-04-24T04:20:03.081Z,99.90
2023-04-24T04:22:29.638Z,99.90
2023-04-24T04:24:56.181Z,99.90
2023-04-24T04:27:23.021Z,99.90
2023-04-24T04:29:49.621Z,99.90
2023-04-24T04:32:16.262Z,99.90
2023-04-24T04:34:42.970Z,99.90
2023-04-24T04:37:09.507Z,99.90
2023-04-24T04:39:36.057Z,99.90
2023-04-24T04:42:02.629Z,99.90
2023-04-24T04:44:30.439Z,99.90
2023-04-24T04:46:57.871Z,99.90
2023-04-24T04:49:24.454Z,99.90
2023-04-24T04:51:51.060Z,99.90
2023-04-24T04:54:17.881Z,99.90
2023-04-24T04:56:44.463Z,99.90
2023-04-24T04:59:11.038Z,99.90
2023-04-24T05:01:37.783Z,99.90
2023-04-24T05:04:04.669Z,99.90
2023-04-24T05:06:31.356Z,99.90
2023-04-24T05:08:57.909Z,99.90
2023-04-24T05:11:24.560Z,99.90
2023-04-24T05:13:51.149Z,99.90
2023-04-24T05:16:17.820Z,99.90
2023-04-24T05:18:44.680Z,99.90
2023-04-24T05:21:11.271Z,99.90
2023-04-24T05:23:37.831Z,99.90
2023-04-24T05:26:06.893Z,99.90
2023-04-24T05:28:34.282Z,99.90
2023-04-24T05:31:00.894Z,99.90
2023-04-24T05:33:27.523Z,99.90
2023-04-24T05:35:54.292Z,99.90
2023-04-24T05:38:20.894Z,99.90
2023-04-24T05:40:47.464Z,99.90
2023-04-24T05:43:14.137Z,99.90
2023-04-24T05:45:40.943Z,99.90
2023-04-24T05:48:07.578Z,99.90
2023-04-24T05:50:36.688Z,99.90
2023-04-24T05:53:03.811Z,99.90
2023-04-24T05:55:32.062Z,99.90
2023-04-24T05:57:58.667Z,99.90
2023-04-24T06:00:27.074Z,99.90
2023-04-24T06:02:54.218Z,99.90
2023-04-24T06:05:21.281Z,99.90
2023-04-24T06:07:48.550Z,99.90
2023-04-24T06:10:15.159Z,99.90
2023-04-24T06:12:41.803Z,99.90
2023-04-24T06:15:08.673Z,99.90
2023-04-24T06:17:35.386Z,99.90
2023-04-24T06:20:02.131Z,99.90
2023-04-24T06:22:28.984Z,99.90
2023-04-24T06:24:55.588Z,99.90
2023-04-24T06:27:22.211Z,99.90
2023-04-24T06:29:48.753Z,99.90
2023-04-24T06:32:15.402Z,99.90
2023-04-24T06:34:42.000Z,99.90
2023-04-24T06:37:08.569Z,99.90
2023-04-24T06:39:35.218Z,99.90
2023-04-24T06:42:01.760Z,99.90
2023-04-24T06:44:28.344Z,99.90
2023-04-24T06:46:54.934Z,99.90
2023-04-24T06:49:21.500Z,99.90
2023-04-24T06:51:48.056Z,99.90
2023-04-24T06:54:14.646Z,99.90
2023-04-24T06:56:41.233Z,99.90
2023-04-24T06:59:07.862Z,99.90
2023-04-24T07:01:34.534Z,99.90
2023-04-24T07:04:01.347Z,99.90
2023-04-24T07:06:28.140Z,99.90
2023-04-24T07:08:55.110Z,99.90
2023-04-24T07:11:21.670Z,99.90
2023-04-24T07:13:48.305Z,99.90
2023-04-24T07:16:14.930Z,99.90
2023-04-24T07:18:41.484Z,99.90
2023-04-24T07:21:08.076Z,99.90
2023-04-24T07:23:34.664Z,99.90
2023-04-24T07:26:01.288Z,99.90
2023-04-24T07:28:27.854Z,99.90
2023-04-24T07:30:54.454Z,99.90
2023-04-24T07:33:21.065Z,99.90
2023-04-24T07:35:47.705Z,99.90
2023-04-24T07:38:14.354Z,99.90
2023-04-24T07:40:40.951Z,99.90
2023-04-24T07:43:07.518Z,99.90
2023-04-24T07:45:34.128Z,99.90
2023-04-24T07:48:00.737Z,99.90
2023-04-24T07:50:27.317Z,99.90
2023-04-24T07:52:53.869Z,99.90
2023-04-24T07:55:23.277Z,99.90
2023-04-24T07:57:50.856Z,99.90
2023-04-24T08:00:17.701Z,99.90
2023-04-24T08:02:44.328Z,99.90
2023-04-24T08:05:11.209Z,99.90
2023-04-24T08:07:38.746Z,99.90
2023-04-24T08:10:05.836Z,99.90
2023-04-24T08:12:32.423Z,99.90
2023-04-24T08:14:58.967Z,99.90
2023-04-24T08:17:25.512Z,99.90
2023-04-24T08:19:52.350Z,99.90
2023-04-24T08:22:18.976Z,99.90
2023-04-24T08:24:45.585Z,99.90
2023-04-24T08:27:12.182Z,99.90
2023-04-24T08:29:38.826Z,99.90
2023-04-24T08:32:05.477Z,99.90
2023-04-24T08:34:32.074Z,99.90
2023-04-24T08:36:58.920Z,99.90
2023-04-24T08:39:25.530Z,99.90
2023-04-24T08:41:53.832Z,99.90
2023-04-24T08:44:21.202Z,99.90
2023-04-24T08:46:49.710Z,99.90
2023-04-24T08:49:16.853Z,99.90
2023-04-24T08:51:43.584Z,99.90
2023-04-24T08:54:10.265Z,99.90
2023-04-24T08:56:38.160Z,99.90
2023-04-24T08:59:06.484Z,99.90
2023-04-24T09:01:34.063Z,99.90
2023-04-24T09:04:04.008Z,99.90
2023-04-24T09:06:31.632Z,99.90
2023-04-24T09:09:01.240Z,99.90
2023-04-24T09:11:29.801Z,99.90
2023-04-24T09:13:57.279Z,99.90
2023-04-24T09:16:25.326Z,99.90
2023-04-24T09:18:52.327Z,99.90
2023-04-24T09:21:21.991Z,99.90
2023-04-24T09:24:02.880Z,99.90
2023-04-24T09:26:35.313Z,99.90
2023-04-24T09:29:02.388Z,99.90
2023-04-24T09:31:30.011Z,99.90
2023-04-24T09:34:01.711Z,99.90
2023-04-24T09:36:34.061Z,99.90
2023-04-24T09:39:06.010Z,99.90
2023-04-24T09:41:34.278Z,99.90
2023-04-24T09:44:18.361Z,99.90
2023-04-24T09:46:46.671Z,99.90
2023-04-24T09:49:18.057Z,99.90
2023-04-24T09:51:44.708Z,99.90
2023-04-24T09:54:16.897Z,99.90
2023-04-24T09:56:44.920Z,99.90
2023-04-24T09:59:14.286Z,99.90
2023-04-24T10:01:41.138Z,99.90
2023-04-24T10:04:07.811Z,99.90
2023-04-24T10:06:35.317Z,99.90
2023-04-24T10:09:02.540Z,99.90
2023-04-24T10:11:29.208Z,99.90
2023-04-24T10:13:56.025Z,99.90
2023-04-24T10:16:24.040Z,99.90
2023-04-24T10:18:50.762Z,99.90
2023-04-24T10:21:19.240Z,99.90
2023-04-24T10:23:46.227Z,99.90
2023-04-24T10:26:14.189Z,99.90
2023-04-24T10:28:42.527Z,99.90
2023-04-24T10:31:10.628Z,99.90
2023-04-24T10:33:38.564Z,99.90
2023-04-24T10:36:05.874Z,99.90
2023-04-24T10:38:32.757Z,99.90
2023-04-24T10:41:11.740Z,99.90
2023-04-24T10:43:40.875Z,99.90
2023-04-24T10:46:07.613Z,99.90
2023-04-24T10:48:34.565Z,99.90
2023-04-24T10:51:02.058Z,99.90
2023-04-24T10:53:30.692Z,99.90
2023-04-24T10:56:05.880Z,99.90
2023-04-24T10:58:53.896Z,99.90
2023-04-24T11:01:31.884Z,99.90
2023-04-24T11:04:03.740Z,99.90
2023-04-24T11:06:37.866Z,99.90
2023-04-24T11:09:05.384Z,99.90
2023-04-24T11:11:32.147Z,99.90
2023-04-24T11:13:58.654Z,99.90
2023-04-24T11:16:53.887Z,99.90
2023-04-24T11:19:22.683Z,99.90
2023-04-24T11:22:00.499Z,99.90
2023-04-24T11:24:48.810Z,99.90
2023-04-24T11:27:22.028Z,99.90
2023-04-24T11:29:58.259Z,99.90
2023-04-24T11:32:31.130Z,99.90
2023-04-24T11:35:22.165Z,99.90
2023-04-24T11:38:18.834Z,99.90
2023-04-24T11:40:40.510Z,99.90
2023-04-24T11:43:09.592Z,99.90
2023-04-24T11:45:36.247Z,99.90
2023-04-24T11:48:04.831Z,99.90
2023-04-24T11:50:31.800Z,99.90
2023-04-24T11:52:58.510Z,99.90
2023-04-24T11:55:29.544Z,99.90
2023-04-24T11:58:00.555Z,99.90
2023-04-24T12:00:32.379Z,99.90
2023-04-24T12:03:06.528Z,99.90
2023-04-24T12:05:33.378Z,99.90
2023-04-24T12:08:00.270Z,99.90
2023-04-24T12:10:29.289Z,99.90
2023-04-24T12:12:57.406Z,99.90
2023-04-24T12:15:24.967Z,99.90
2023-04-24T12:17:53.102Z,99.90
2023-04-24T12:20:28.830Z,99.90
2023-04-24T12:22:57.446Z,99.90
2023-04-24T12:25:26.393Z,99.90
2023-04-24T12:28:09.542Z,99.90
2023-04-24T12:30:41.037Z,99.90
2023-04-24T12:33:07.886Z,99.90
2023-04-24T12:35:35.192Z,99.90
2023-04-24T12:38:13.776Z,99.90
2023-04-24T12:40:41.748Z,99.90
2023-04-24T12:43:21.193Z,99.90
2023-04-24T12:45:50.659Z,99.90
2023-04-24T12:48:17.376Z,99.90
2023-04-24T12:50:46.382Z,99.90
2023-04-24T12:53:14.167Z,99.90
2023-04-24T12:55:40.795Z,99.90
2023-04-24T12:58:08.848Z,99.90
2023-04-24T13:00:35.703Z,99.90
2023-04-24T13:03:02.852Z,99.90
2023-04-24T13:05:29.828Z,99.90
2023-04-24T13:07:56.398Z,99.90
2023-04-24T13:10:23.045Z,99.90
2023-04-24T13:12:50.073Z,99.90
2023-04-24T13:15:16.691Z,99.90
2023-04-24T13:17:43.294Z,99.90
2023-04-24T13:20:10.143Z,99.90
2023-04-24T13:22:37.248Z,99.90
2023-04-24T13:25:04.181Z,99.90
2023-04-24T13:27:30.791Z,99.90
2023-04-24T13:29:57.326Z,99.90
2023-04-24T13:32:23.963Z,99.90
2023-04-24T13:34:50.617Z,99.90
2023-04-24T13:37:17.208Z,99.90
2023-04-24T13:39:43.783Z,99.90
2023-04-24T13:42:10.460Z,99.90
2023-04-24T13:44:37.080Z,99.90
2023-04-24T13:47:03.658Z,99.90
2023-04-24T13:49:30.291Z,99.90
2023-04-24T13:51:57.555Z,99.90
2023-04-24T13:54:24.150Z,99.90
2023-04-24T13:56:51.664Z,99.90
2023-04-24T13:59:18.285Z,99.90
2023-04-24T14:01:45.035Z,99.90
2023-04-24T14:04:11.957Z,99.90
2023-04-24T14:06:38.784Z,99.90
2023-04-24T14:09:05.334Z,99.90
2023-04-24T14:11:31.965Z,99.90
2023-04-24T14:13:58.650Z,99.90
2023-04-24T14:16:25.630Z,99.90
2023-04-24T14:18:52.249Z,99.90
2023-04-24T14:21:18.812Z,99.90
2023-04-24T14:23:45.535Z,99.90
2023-04-24T14:26:12.382Z,99.90
2023-04-24T14:28:39.000Z,99.90
2023-04-24T14:31:05.648Z,99.90
2023-04-24T14:33:32.241Z,99.90
2023-04-24T14:35:58.849Z,99.90
2023-04-24T14:38:25.399Z,99.90
2023-04-24T14:41:06.224Z,99.90
2023-04-24T14:43:34.651Z,99.90
2023-04-24T14:46:01.219Z,99.90
2023-04-24T14:48:27.790Z,99.90
2023-04-24T14:50:54.465Z,99.90
2023-04-24T14:53:21.605Z,99.90
2023-04-24T14:55:48.162Z,99.90
2023-04-24T14:58:14.827Z,99.90
2023-04-24T15:00:41.424Z,99.90
2023-04-24T15:03:08.180Z,99.90
2023-04-24T15:05:35.585Z,99.90
2023-04-24T15:08:02.450Z,99.90
2023-04-24T15:10:29.505Z,99.90
2023-04-24T15:12:56.279Z,99.90
2023-04-24T15:15:23.167Z,99.90
2023-04-24T15:17:49.829Z,99.90
2023-04-24T15:20:16.506Z,99.90
2023-04-24T15:22:43.040Z,99.90
2023-04-24T15:25:09.716Z,99.90
2023-04-24T15:27:43.996Z,99.90
2023-04-24T15:30:11.636Z,99.80
2023-04-24T15:32:39.071Z,99.90
2023-04-24T15:35:09.148Z,99.30
2023-04-24T15:37:37.018Z,99.90
2023-04-24T15:40:04.157Z,99.90
2023-04-24T15:42:30.788Z,99.90
2023-04-24T15:44:57.371Z,99.90
2023-04-24T15:47:23.960Z,99.90
2023-04-24T15:49:50.587Z,99.30
2023-04-24T15:52:17.152Z,99.90
2023-04-24T15:54:43.714Z,99.00
2023-04-24T15:57:10.333Z,98.90
2023-04-24T15:59:36.914Z,97.20
2023-04-24T16:02:03.638Z,97.10
2023-04-24T16:04:30.446Z,97.70
2023-04-24T16:06:57.275Z,96.80
2023-04-24T16:09:23.954Z,96.40
2023-04-24T16:11:50.829Z,95.80
2023-04-24T16:14:17.407Z,95.80
2023-04-24T16:16:44.113Z,97.40
2023-04-24T16:19:10.720Z,97.90
2023-04-24T16:21:37.281Z,96.90
2023-04-24T16:24:04.803Z,97.90
2023-04-24T16:26:31.354Z,95.70
2023-04-24T16:28:57.901Z,96.90
2023-04-24T16:31:24.442Z,98.00
2023-04-24T16:33:51.029Z,97.70
2023-04-24T16:36:17.621Z,96.90
2023-04-24T16:38:44.181Z,96.70
2023-04-24T16:41:10.782Z,97.50
2023-04-24T16:43:37.387Z,97.90
2023-04-24T16:46:04.201Z,97.40
2023-04-24T16:48:33.023Z,97.40
2023-04-24T16:50:59.571Z,97.70
2023-04-24T16:53:26.212Z,98.40
2023-04-24T16:55:52.819Z,99.10
2023-04-24T16:58:19.403Z,97.90
2023-04-24T17:00:46.026Z,99.70
2023-04-24T17:03:13.223Z,99.90
2023-04-24T17:05:40.067Z,99.90
2023-04-24T17:08:06.618Z,99.90
2023-04-24T17:10:33.236Z,99.90
2023-04-24T17:13:00.204Z,99.90
2023-04-24T17:15:26.847Z,99.90
2023-04-24T17:17:53.636Z,99.90
2023-04-24T17:20:22.773Z,99.90
2023-04-24T17:22:50.200Z,99.90
2023-04-24T17:25:16.926Z,99.90
2023-04-24T17:27:44.681Z,99.90
2023-04-24T17:30:12.001Z,99.90
2023-04-24T17:32:38.690Z,99.90
2023-04-24T17:35:05.961Z,99.90
2023-04-24T17:37:33.333Z,99.90
2023-04-24T17:39:59.903Z,99.90
2023-04-24T17:42:26.646Z,99.90
2023-04-24T17:44:53.232Z,99.90
2023-04-24T17:47:19.832Z,99.90
2023-04-24T17:49:46.362Z,99.90
2023-04-24T17:52:12.933Z,99.90
2023-04-24T17:54:39.527Z,99.90
2023-04-24T17:57:06.113Z,99.90
2023-04-24T17:59:32.680Z,99.90
2023-04-24T18:01:59.296Z,99.90
2023-04-24T18:04:26.166Z,99.90
2023-04-24T18:06:52.856Z,99.90
2023-04-24T18:09:19.441Z,99.90
2023-04-24T18:11:46.318Z,99.90
2023-04-24T18:14:13.640Z,99.90
2023-04-24T18:16:40.244Z,99.90
2023-04-24T18:19:06.828Z,99.90
2023-04-24T18:21:33.472Z,99.90
2023-04-24T18:24:00.322Z,99.90
2023-04-24T18:26:27.665Z,99.90
2023-04-24T18:28:54.307Z,99.90
2023-04-24T18:31:20.999Z,99.90
2023-04-24T18:33:47.916Z,99.90
2023-04-24T18:36:14.484Z,99.90
2023-04-24T18:38:41.107Z,99.90
2023-04-24T18:41:07.743Z,99.90
2023-04-24T18:43:34.485Z,99.90
2023-04-24T18:46:01.055Z,99.90
2023-04-24T18:48:27.636Z,99.90
2023-04-24T18:50:54.250Z,99.90
2023-04-24T18:53:20.877Z,99.90
2023-04-24T18:55:47.467Z,99.90
2023-04-24T18:58:14.069Z,99.90
2023-04-24T19:00:41.039Z,99.90
2023-04-24T19:03:07.780Z,99.90
2023-04-24T19:05:34.507Z,99.90
2023-04-24T19:08:01.128Z,99.90
2023-04-24T19:10:27.725Z,99.90
2023-04-24T19:12:54.350Z,99.90
2023-04-24T19:15:20.929Z,99.90
2023-04-24T19:17:47.555Z,99.90
2023-04-24T19:20:14.141Z,99.90
2023-04-24T19:22:40.753Z,99.90
2023-04-24T19:25:07.766Z,99.90
2023-04-24T19:27:34.377Z,99.90
2023-04-24T19:30:01.029Z,99.90
2023-04-24T19:32:28.311Z,99.90
2023-04-24T19:34:54.956Z,99.90
2023-04-24T19:37:21.867Z,99.90
2023-04-24T19:39:48.427Z,99.90
2023-04-24T19:42:15.070Z,99.90
2023-04-24T19:44:41.677Z,99.90
2023-04-24T19:47:08.266Z,99.90
2023-04-24T19:49:34.832Z,99.90
2023-04-24T19:52:01.378Z,99.90
2023-04-24T19:54:28.422Z,99.90
2023-04-24T19:56:54.972Z,99.90
2023-04-24T19:59:21.563Z,99.90
2023-04-24T20:01:48.203Z,99.90
2023-04-24T20:04:14.907Z,99.90
2023-04-24T20:06:41.575Z,99.90
2023-04-24T20:09:08.148Z,99.90
2023-04-24T20:11:34.742Z,99.90
2023-04-24T20:14:01.370Z,99.90
2023-04-24T20:16:27.925Z,99.90
2023-04-24T20:18:54.511Z,99.90
2023-04-24T20:21:21.098Z,99.90
2023-04-24T20:23:47.683Z,99.90
2023-04-24T20:26:14.270Z,99.90
2023-04-24T20:28:40.848Z,99.90
2023-04-24T20:31:07.466Z,99.90
2023-04-24T20:33:34.030Z,99.90
2023-04-24T20:36:00.853Z,99.90
2023-04-24T20:38:27.414Z,99.90
2023-04-24T20:40:58.139Z,99.90
2023-04-24T20:43:28.353Z,99.90
2023-04-24T20:45:56.454Z,99.90
2023-04-24T20:48:23.256Z,99.90
2023-04-24T20:50:49.825Z,99.90
2023-04-24T20:53:16.433Z,99.90
2023-04-24T20:55:43.042Z,99.90
2023-04-24T20:58:10.097Z,99.90
2023-04-24T21:00:36.688Z,99.90
2023-04-24T21:03:03.389Z,99.90
2023-04-24T21:05:30.159Z,99.90
2023-04-24T21:07:56.740Z,99.90
2023-04-24T21:10:23.955Z,99.90
2023-04-24T21:12:50.650Z,99.90
2023-04-24T21:15:17.665Z,99.90
2023-04-24T21:17:44.630Z,99.90
2023-04-24T21:20:11.531Z,99.90
2023-04-24T21:22:38.137Z,99.90
2023-04-24T21:25:05.175Z,99.90
2023-04-24T21:27:31.866Z,99.90
2023-04-24T21:29:58.521Z,99.90
2023-04-24T21:32:25.122Z,99.90
2023-04-24T21:34:51.704Z,99.90
2023-04-24T21:37:18.265Z,99.90
2023-04-24T21:39:44.852Z,99.90
2023-04-24T21:42:11.542Z,99.90
2023-04-24T21:44:38.149Z,99.90
2023-04-24T21:47:04.792Z,99.90
2023-04-24T21:49:31.378Z,99.90
2023-04-24T21:51:57.926Z,99.90
2023-04-24T21:54:24.564Z,99.90
2023-04-24T21:56:51.283Z,99.90
2023-04-24T21:59:18.195Z,99.90
2023-04-24T22:01:44.850Z,99.90
2023-04-24T22:04:11.611Z,99.90
2023-04-24T22:06:38.318Z,99.90
2023-04-24T22:09:04.988Z,99.90
2023-04-24T22:11:31.640Z,99.90
2023-04-24T22:13:58.194Z,99.90
2023-04-24T22:16:25.001Z,99.90
2023-04-24T22:18:51.775Z,99.90
2023-04-24T22:21:18.370Z,99.90
2023-04-24T22:23:44.939Z,99.90
2023-04-24T22:26:11.514Z,99.90
2023-04-24T22:28:38.070Z,99.90
2023-04-24T22:31:04.736Z,99.90
2023-04-24T22:33:31.375Z,99.90
2023-04-24T22:35:57.946Z,99.90
2023-04-24T22:38:24.517Z,99.90
2023-04-24T22:40:51.143Z,99.90
2023-04-24T22:43:17.719Z,99.90
2023-04-24T22:45:44.287Z,99.90
2023-04-24T22:48:11.146Z,99.90
2023-04-24T22:50:37.706Z,99.90
2023-04-24T22:53:04.248Z,99.90
2023-04-24T22:55:30.909Z,99.90
2023-04-24T22:57:57.502Z,99.90
2023-04-24T23:00:24.188Z,99.90
2023-04-24T23:02:50.910Z,99.90
2023-04-24T23:05:17.564Z,99.90
2023-04-24T23:07:44.179Z,99.90
2023-04-24T23:10:10.799Z,99.90
2023-04-24T23:12:38.155Z,99.90
2023-04-24T23:15:05.326Z,99.90
2023-04-24T23:17:32.074Z,99.90
2023-04-24T23:19:58.693Z,99.90
2023-04-24T23:22:25.316Z,99.90
2023-04-24T23:24:51.850Z,99.90
2023-04-24T23:27:18.405Z,99.90
2023-04-24T23:29:44.979Z,99.90
2023-04-24T23:32:11.592Z,99.90
2023-04-24T23:34:38.167Z,99.90
2023-04-24T23:37:05.643Z,99.90
2023-04-24T23:39:32.665Z,99.90
2023-04-24T23:41:59.305Z,99.90
2023-04-24T23:44:25.853Z,99.90
2023-04-24T23:46:52.435Z,99.90
2023-04-24T23:49:18.949Z,99.90
2023-04-24T23:51:45.534Z,99.90
2023-04-24T23:54:12.702Z,99.90
2023-04-24T23:56:39.338Z,99.90
2023-04-24T23:59:06.079Z,99.90
